Latest Weather Observations for Fowlers Gap

IDN60801

Issued at 5:35 pm EST Friday 1 August 2014 (issued every 30 minutes, with the page automatically refreshed every 10 minutes)

About weather observations | Map of weather stations | Latest weather observations for NSW | Other Formats
Station Details ID: 046128 Name: FOWLERS GAP AWS Lat: -31.09 Lon: 141.70 Height: 181.0 m
Data from the previous 72 hours. | See also: Recent months at Fowlers Gap
Date/Time
EST
Temp
°C
App
Temp
°C
Dew
Point
Rel
Hum
%
Delta-T
°C
Wind Press
QNH
hPa
Press
MSL
hPa
Rain
since 9 am
mm
Dir
 
Spd
km/h
Gust
km/h
Spd
kts
Gust
kts
01/05:30pm 14.1 5.9 -3.6 29 6.9 SW 30 39 16 21 1021.8 - 0.0
01/05:00pm 14.5 5.7 -4.2 27 7.2 SSW 33 44 18 24 1021.5 1021.5 0.0
01/04:30pm 14.7 5.5 -4.1 27 7.3 SSW 35 46 19 25 1021.2 - 0.0
01/04:00pm 15.2 6.7 -3.6 27 7.4 SW 32 43 17 23 1020.7 1020.8 0.0
01/03:31pm 15.1 6.4 -3.3 28 7.3 SW 33 52 18 28 1020.6 - 0.0
01/03:30pm 15.2 6.1 -3.6 27 7.4 SW 35 52 19 28 1020.6 - 0.0
01/03:00pm 14.9 6.8 -3.0 29 7.1 SW 30 50 16 27 1020.4 1020.5 0.0
01/02:30pm 14.8 6.3 -2.1 31 6.9 SW 33 52 18 28 1020.2 - 0.0
01/02:00pm 14.3 5.4 -2.2 32 6.6 SW 35 52 19 28 1020.1 1020.2 0.0
01/01:30pm 14.0 5.3 -0.8 36 6.1 WSW 35 44 19 24 1020.1 - 0.0
01/01:00pm 13.9 5.8 -0.5 37 6.0 SW 32 44 17 24 1020.4 1020.5 0.0
01/12:30pm 13.4 5.4 0.1 40 5.6 SW 32 46 17 25 1020.5 - 0.0
01/12:01pm 12.9 5.3 0.3 42 5.3 SW 30 48 16 26 1020.7 - 0.0
01/12:00pm 13.0 5.4 0.4 42 5.3 SW 30 37 16 20 1020.7 1020.8 0.0
01/11:30am 12.3 4.4 1.0 46 4.8 SW 32 43 17 23 1020.6 - 0.0
01/11:00am 12.0 3.1 0.8 46 4.7 SW 37 54 20 29 1020.6 1020.7 0.0
01/10:30am 11.9 3.1 1.5 49 4.5 WSW 37 48 20 26 1020.3 - 0.0
01/10:00am 10.9 2.1 1.4 52 4.0 WSW 37 46 20 25 1019.9 1020.0 0.0
01/09:30am 10.4 2.6 1.5 54 3.8 W 32 43 17 23 1019.5 - 0.0
01/09:00am 9.6 2.6 1.8 58 3.3 W 28 37 15 20 1019.2 1019.4 0.0
01/08:30am 8.8 2.9 1.7 61 3.0 W 22 28 12 15 1018.5 - 0.0
01/08:00am 7.3 2.4 1.8 68 2.3 W 17 24 9 13 1018.2 1018.4 0.0
01/07:30am 6.7 1.8 1.8 71 2.0 W 17 22 9 12 1017.7 - 0.0
01/07:00am 6.0 2.1 1.2 71 1.9 W 11 15 6 8 1017.4 1017.6 0.0
01/06:30am 6.8 2.5 1.3 68 2.2 WSW 13 19 7 10 1016.9 - 0.0
01/06:00am 7.8 3.2 1.4 64 2.6 WSW 15 20 8 11 1016.6 1016.8 0.0
01/05:30am 8.5 2.5 1.2 60 3.0 WSW 22 30 12 16 1016.1 - 0.0
01/05:00am 8.8 2.4 0.8 57 3.3 WSW 24 35 13 19 1015.8 1015.9 0.0
01/04:30am 10.0 2.1 0.9 53 3.8 SW 32 44 17 24 1015.6 - 0.0
01/04:00am 10.6 3.1 1.2 52 3.9 SW 30 37 16 20 1015.3 1015.4 0.0
01/03:30am 11.0 3.9 1.3 51 4.1 SW 28 41 15 22 1015.1 - 0.0
01/03:00am 11.2 5.8 2.2 54 3.9 SW 20 35 11 19 1015.1 1015.2 0.0
01/02:30am 11.3 5.4 3.8 60 3.4 SSW 24 32 13 17 1014.6 - 0.0
01/02:00am 11.6 4.1 4.6 62 3.2 SSW 33 46 18 25 1014.2 1014.4 0.0
01/01:43am 11.8 4.6 5.2 64 3.1 SSW 32 52 17 28 1013.9 - 0.0
01/01:30am 12.0 4.4 5.9 66 2.9 SW 35 48 19 26 1013.5 - 0.0
01/01:18am 12.4 5.3 6.5 67 2.8 SW 33 52 18 28 1012.9 - 0.0
01/01:00am 12.9 6.4 6.3 64 3.2 SW 30 46 16 25 1012.8 1013.0 0.0
01/12:56am 13.0 6.9 6.4 64 3.2 SW 28 44 15 24 1012.8 - 0.0
01/12:30am 13.5 9.5 6.8 64 3.3 SW 17 22 9 12 1012.4 - 0.0
01/12:00am 14.2 6.4 6.8 61 3.6 SW 37 50 20 27 1012.1 1012.3 0.0
 
Date/Time
EST
Temp
°C
App
Temp
°C
Dew
Point
Rel
Hum
%
Delta-T
°C
Wind Press
QNH
hPa
Press
MSL
hPa
Rain
since 9 am
mm
Dir
 
Spd
km/h
Gust
km/h
Spd
kts
Gust
kts
31/11:40pm 14.9 7.9 6.7 58 4.0 WSW 33 52 18 28 1012.1 - 0.0
31/11:30pm 14.8 8.5 3.6 47 5.2 WSW 26 35 14 19 1012.2 - 0.0
31/11:00pm 15.3 9.6 -0.4 34 6.7 WNW 19 24 10 13 1011.4 1011.5 0.0
31/10:30pm 16.2 9.9 -0.9 31 7.2 W 22 28 12 15 1011.3 - 0.0
31/10:00pm 17.5 10.0 -1.2 28 8.0 W 28 35 15 19 1011.1 1011.2 0.0
31/09:30pm 17.8 10.2 -2.5 25 8.4 W 28 35 15 19 1010.7 - 0.0
31/09:00pm 18.0 11.8 -2.8 24 8.6 NW 20 26 11 14 1010.2 1010.3 0.0
31/08:30pm 18.6 12.1 -2.3 24 8.8 NW 22 30 12 16 1010.1 - 0.0
31/08:00pm 18.9 13.0 -2.1 24 8.9 NW 19 30 10 16 1009.8 1009.9 0.0
31/07:30pm 19.3 14.2 -2.3 23 9.1 NW 15 22 8 12 1009.7 - 0.0
31/07:00pm 20.3 14.8 -2.1 22 9.6 NW 17 26 9 14 1009.5 1009.6 0.0
31/06:30pm 21.3 14.1 -1.9 21 10.1 WNW 26 39 14 21 1009.1 - 0.0
31/06:00pm 22.1 13.6 -1.9 20 10.5 WNW 33 44 18 24 1009.0 1009.2 0.0
31/05:30pm 23.0 14.1 -1.8 19 10.9 NW 35 54 19 29 1008.8 - 0.0
31/05:00pm 23.5 14.3 -1.4 19 11.1 NW 37 57 20 31 1009.0 1009.2 0.0
31/04:34pm 23.9 15.1 -1.1 19 11.3 NW 35 54 19 29 1009.5 - 0.0
31/04:30pm 23.9 14.7 -1.1 19 11.3 NW 37 54 20 29 1009.5 - 0.0
31/04:10pm 23.4 13.9 -0.8 20 10.9 NW 39 57 21 31 1009.5 - 0.0
31/04:00pm 23.6 13.7 -0.6 20 11.0 NW 41 56 22 30 1009.6 1009.7 0.0
31/03:34pm 23.7 14.2 -0.6 20 11.0 WNW 39 57 21 31 1010.0 - 0.0
31/03:30pm 23.9 13.7 -0.4 20 11.1 WNW 43 57 23 31 1010.1 - 0.0
31/03:00pm 23.9 14.1 -0.4 20 11.1 WNW 41 57 22 31 1010.2 1010.3 0.0
31/02:37pm 23.7 13.8 -0.6 20 11.0 WNW 41 61 22 33 1010.7 - 0.0
31/02:30pm 23.6 13.4 0.0 21 10.8 NW 43 57 23 31 1010.8 - 0.0
31/02:03pm 23.1 13.7 0.2 22 10.5 NW 39 57 21 31 1010.9 - 0.0
31/02:00pm 23.6 14.2 0.0 21 10.8 NW 39 56 21 30 1011.0 1011.1 0.0
31/01:59pm 23.5 14.1 -0.1 21 10.8 NW 39 57 21 31 1011.0 - 0.0
31/01:30pm 23.1 14.1 0.2 22 10.5 NW 37 50 20 27 1011.6 - 0.0
31/01:07pm 22.8 14.2 0.0 22 10.4 NW 35 65 19 35 1011.9 - 0.0
31/01:00pm 22.9 14.3 0.1 22 10.4 NW 35 50 19 27 1012.4 1012.6 0.0
31/12:50pm 22.4 13.4 0.3 23 10.1 NW 37 56 20 30 1012.6 - 0.0
31/12:30pm 22.4 13.1 0.3 23 10.1 NW 39 52 21 28 1013.0 - 0.0
31/12:00pm 21.9 13.3 0.4 24 9.8 NW 35 48 19 26 1013.6 1013.8 0.0
31/11:35am 21.1 12.5 0.3 25 9.4 NW 35 54 19 29 1014.0 - 0.0
31/11:30am 21.2 12.6 0.4 25 9.4 NW 35 48 19 26 1014.2 - 0.0
31/11:06am 20.3 12.3 0.2 26 9.0 NW 32 50 17 27 1014.4 - 0.0
31/11:00am 20.1 12.1 0.5 27 8.8 NNW 32 43 17 23 1014.6 1014.8 0.0
31/10:30am 18.4 10.2 0.5 30 8.0 NW 33 48 18 26 1015.2 - 0.0
31/10:00am 16.7 9.8 -0.1 32 7.3 NW 26 35 14 19 1015.7 1015.8 0.0
31/09:30am 14.7 7.6 -1.0 34 6.5 NW 26 39 14 21 1015.6 - 0.0
31/09:00am 13.2 6.8 -1.5 36 6.0 NW 22 32 12 17 1015.9 1016.0 0.0
31/08:30am 11.8 4.7 -1.3 40 5.3 NW 26 33 14 18 1016.0 - 0.0
31/08:00am 11.2 3.3 -1.5 41 5.0 NW 30 39 16 21 1015.8 1015.9 0.0
31/07:30am 11.0 4.3 -0.8 44 4.8 NW 24 37 13 20 1015.6 - 0.0
31/07:00am 10.5 4.2 -0.9 45 4.6 NW 22 28 12 15 1015.6 1015.7 0.0
31/06:30am 10.3 4.6 -1.1 45 4.5 NW 19 26 10 14 1015.3 - 0.0
31/06:00am 10.6 6.4 -0.8 45 4.6 NNW 11 15 6 8 1015.4 1015.5 0.0
31/05:30am 10.5 6.7 -0.9 45 4.6 NNW 9 15 5 8 1015.2 - 0.0
31/05:00am 10.6 5.6 -1.1 44 4.7 NW 15 20 8 11 1015.5 1015.6 0.0
31/04:30am 10.5 5.9 -1.2 44 4.6 NNW 13 17 7 9 1015.7 - 0.0
31/04:00am 11.0 7.1 -1.4 42 4.9 NW 9 17 5 9 1016.1 1016.2 0.0
31/03:30am 11.5 6.1 -1.6 40 5.2 NW 17 20 9 11 1016.0 - 0.0
31/03:00am 11.6 6.6 -1.5 40 5.2 NW 15 19 8 10 1016.4 1016.5 0.0
31/02:30am 11.5 6.8 -1.6 40 5.2 NW 13 15 7 8 1016.7 - 0.0
31/02:00am 12.2 8.7 -1.7 38 5.5 NW 7 11 4 6 1016.9 1017.1 0.0
31/01:30am 12.2 8.8 -2.0 37 5.6 NW 6 11 3 6 1017.0 - 0.0
31/01:00am 13.2 9.3 -1.5 36 5.9 NW 9 17 5 9 1017.3 1017.5 0.0
31/12:30am 10.5 5.8 -1.9 42 4.8 WNW 13 15 7 8 1017.5 - 0.0
31/12:00am 11.9 7.2 -1.9 38 5.5 NW 13 15 7 8 1017.7 1017.9 0.0
 
Date/Time
EST
Temp
°C
App
Temp
°C
Dew
Point
Rel
Hum
%
Delta-T
°C
Wind Press
QNH
hPa
Press
MSL
hPa
Rain
since 9 am
mm
Dir
 
Spd
km/h
Gust
km/h
Spd
kts
Gust
kts
30/11:30pm 14.0 8.9 -1.6 34 6.4 NW 15 19 8 10 1017.9 - 0.0
30/11:00pm 13.7 9.0 -1.5 35 6.2 NW 13 17 7 9 1018.0 1018.2 0.0
30/10:30pm 12.2 8.9 -1.3 39 5.4 N 6 7 3 4 1018.0 - 0.0
30/10:00pm 13.5 9.3 -0.9 37 5.9 NNW 11 15 6 8 1018.2 1018.4 0.0
30/09:30pm 13.2 10.0 -0.8 38 5.8 NNW 6 7 3 4 1018.3 - 0.0
30/09:00pm 14.0 10.2 -0.4 37 6.0 NNW 9 11 5 6 1018.5 1018.7 0.0
30/08:30pm 13.2 9.8 -0.8 38 5.8 NNW 7 9 4 5 1018.6 - 0.0
30/08:00pm 14.9 11.1 -0.4 35 6.4 NW 9 11 5 6 1018.5 1018.7 0.0
30/07:30pm 15.4 11.6 -0.4 34 6.7 NW 9 11 5 6 1018.6 - 0.0
30/07:00pm 17.3 13.6 0.0 31 7.5 NW 9 11 5 6 1018.6 1018.8 0.0
30/06:30pm 18.7 14.6 -0.2 28 8.3 NW 11 15 6 8 1018.3 - 0.0
30/06:00pm 19.8 15.8 0.3 27 8.7 NW 11 17 6 9 1018.3 1018.5 0.0
30/05:30pm 21.4 16.3 0.6 25 9.5 NW 17 22 9 12 1018.2 - 0.0
30/05:00pm 22.2 17.1 0.7 24 9.9 NW 17 22 9 12 1018.3 1018.5 0.0
30/04:30pm 22.3 17.3 1.3 25 9.8 NW 17 24 9 13 1018.3 - 0.0
30/04:00pm 22.6 18.0 1.6 25 9.8 WNW 15 19 8 10 1018.5 1018.7 0.0
30/03:30pm 22.0 16.5 1.6 26 9.5 WNW 20 32 11 17 1018.7 - 0.0
30/03:00pm 22.4 17.1 2.0 26 9.6 WNW 19 24 10 13 1019.0 1019.2 0.0
30/02:30pm 21.9 16.5 1.5 26 9.5 NW 19 30 10 16 1019.2 - 0.0
30/02:00pm 21.9 17.0 2.1 27 9.3 NW 17 26 9 14 1019.5 1019.7 0.0
30/01:30pm 21.6 16.7 2.3 28 9.1 NW 17 22 9 12 1020.1 - 0.0
30/01:00pm 21.1 16.6 2.4 29 8.8 WNW 15 22 8 12 1020.6 1020.8 0.0
30/12:30pm 20.6 16.3 3.3 32 8.3 WNW 15 22 8 12 1021.3 - 0.0
30/12:00pm 20.2 16.8 3.9 34 7.8 WNW 11 19 6 10 1021.9 1022.1 0.0
30/11:30am 19.6 16.2 4.1 36 7.5 NW 11 17 6 9 1022.3 - 0.0
30/11:00am 19.1 15.6 3.7 36 7.3 W 11 15 6 8 1022.8 1023.0 0.0
30/10:30am 18.4 15.3 3.5 37 7.0 NW 9 15 5 8 1023.1 - 0.0
30/10:00am 16.8 15.3 3.1 40 6.3 CALM 0 6 0 3 1023.3 1023.5 0.0
30/09:30am 14.0 11.3 2.6 46 5.1 WNW 6 7 3 4 1023.1 - 0.0
30/09:00am 10.7 7.6 1.5 53 3.9 WNW 7 9 4 5 1023.0 1023.2 0.0
30/08:30am 8.2 6.4 1.1 61 2.9 CALM 0 0 0 0 1022.8 - 0.0
30/08:00am 5.1 3.1 -0.3 68 2.1 CALM 0 0 0 0 1022.6 1022.8 0.0
30/07:30am 3.8 1.7 -1.0 71 1.8 CALM 0 0 0 0 1022.5 - 0.0
30/07:00am 4.0 0.5 -1.2 69 1.9 WNW 7 11 4 6 1022.3 1022.5 0.0
30/06:30am 4.7 1.4 -0.1 71 1.8 W 7 9 4 5 1022.0 - 0.0
30/06:00am 5.0 1.7 -0.2 69 2.0 NW 7 9 4 5 1021.7 1021.9 0.0
30/05:30am 4.8 1.4 -0.4 69 2.0 WNW 7 9 4 5 1021.6 - 0.0
30/05:00am 5.3 2.0 -0.1 68 2.1 NW 7 11 4 6 1021.5 1021.7 0.0
30/04:30am 4.9 2.4 -0.7 67 2.1 WNW 2 6 1 3 1021.5 - 0.0
30/04:00am 5.8 2.7 0.2 67 2.2 NW 6 7 3 4 1021.5 1021.7 0.0
30/03:30am 5.6 3.6 0.0 67 2.2 CALM 0 0 0 0 1021.5 - 0.0
30/03:00am 6.2 3.1 -0.1 64 2.4 NW 6 9 3 5 1021.4 1021.6 0.0
30/02:30am 6.6 4.6 0.1 63 2.6 CALM 0 0 0 0 1021.6 - 0.0
30/02:00am 7.1 4.0 0.1 61 2.8 WNW 6 7 3 4 1021.5 1021.7 0.0
30/01:30am 7.8 4.9 1.2 63 2.7 WNW 6 7 3 4 1021.6 - 0.0
30/01:00am 8.0 6.2 1.0 61 2.8 CALM 0 0 0 0 1021.7 1021.9 0.0
30/12:30am 9.1 7.4 2.0 61 3.0 CALM 0 0 0 0 1021.7 - 0.0
30/12:00am 10.4 8.7 2.0 56 3.6 CALM 0 0 0 0 1021.8 1022.0 0.0
 
Date/Time
EST
Temp
°C
App
Temp
°C
Dew
Point
Rel
Hum
%
Delta-T
°C
Wind Press
QNH
hPa
Press
MSL
hPa
Rain
since 9 am
mm
Dir
 
Spd
km/h
Gust
km/h
Spd
kts
Gust
kts
29/11:30pm 12.2 10.0 3.2 54 4.0 SW 4 11 2 6 1021.9 - 0.0
29/11:00pm 11.8 8.8 2.3 52 4.1 SSW 7 9 4 5 1021.8 1022.0 0.0
29/10:30pm 13.1 9.8 2.6 49 4.7 W 9 11 5 6 1021.5 - 0.0
29/10:00pm 14.1 11.8 3.0 47 5.0 WNW 4 7 2 4 1021.4 1021.6 0.0
29/09:30pm 13.6 11.4 3.4 50 4.6 W 4 9 2 5 1021.1 - 0.0
29/09:00pm 14.5 11.3 3.0 46 5.2 SW 9 13 5 7 1021.1 1021.2 0.0
29/08:30pm 15.5 10.8 3.3 44 5.6 WSW 17 19 9 10 1020.7 - 0.0
29/08:00pm 17.9 12.7 3.4 38 6.8 W 20 24 11 13 1020.6 1020.8 0.0
29/07:30pm 18.1 12.9 3.6 38 6.8 W 20 26 11 14 1020.3 - 0.0
29/07:00pm 17.8 12.8 3.7 39 6.6 WNW 19 24 10 13 1020.3 1020.5 0.0
29/06:30pm 19.1 13.5 3.7 36 7.3 W 22 28 12 15 1020.0 - 0.0
29/06:00pm 19.8 13.9 3.9 35 7.6 W 24 32 13 17 1019.9 1020.1 0.0

Other Formats:

Comma delimited format used in spreadsheet applications
http://www.bom.gov.au/fwo/IDN60801/IDN60801.94686.axf

JavaScript Object Notation format (JSON) in row-major order
http://www.bom.gov.au/fwo/IDN60801/IDN60801.94686.json